createdAt,value
2023-03-30T00:01:19.384Z,3.20
2023-03-30T00:03:49.815Z,3.00
2023-03-30T00:06:22.636Z,3.17
2023-03-30T00:08:57.436Z,2.97
2023-03-30T00:11:27.214Z,3.27
2023-03-30T00:13:56.229Z,3.00
2023-03-30T00:16:24.726Z,3.07
2023-03-30T00:18:53.567Z,3.00
2023-03-30T00:21:23.490Z,3.08
2023-03-30T00:23:52.377Z,2.90
2023-03-30T00:26:21.277Z,2.70
2023-03-30T00:28:50.103Z,3.33
2023-03-30T00:31:18.691Z,2.67
2023-03-30T00:33:47.851Z,2.77
2023-03-30T00:36:17.822Z,3.10
2023-03-30T00:38:48.368Z,2.33
2023-03-30T00:41:17.754Z,2.47
2023-03-30T00:43:57.368Z,2.00
2023-03-30T00:46:26.078Z,2.43
2023-03-30T00:48:58.237Z,1.87
2023-03-30T00:51:28.366Z,2.60
2023-03-30T00:54:04.663Z,2.27
2023-03-30T00:56:33.330Z,2.27
2023-03-30T00:59:03.852Z,1.90
2023-03-30T01:01:38.503Z,2.10
2023-03-30T01:04:09.765Z,1.73
2023-03-30T01:06:40.298Z,2.10
2023-03-30T01:09:10.875Z,2.27
2023-03-30T01:11:39.511Z,1.87
2023-03-30T01:14:10.654Z,1.87
2023-03-30T01:16:45.146Z,1.60
2023-03-30T01:19:38.560Z,1.90
2023-03-30T01:22:54.293Z,1.93
2023-03-30T01:25:45.735Z,1.60
2023-03-30T01:28:31.891Z,1.90
2023-03-30T01:31:30.448Z,2.00
2023-03-30T01:34:29.752Z,1.87
2023-03-30T01:37:37.594Z,1.87
2023-03-30T01:40:14.564Z,2.27
2023-03-30T01:42:54.984Z,1.83
2023-03-30T01:45:30.193Z,2.00
2023-03-30T01:48:09.341Z,1.77
2023-03-30T01:50:43.014Z,1.83
2023-03-30T01:53:16.865Z,2.10
2023-03-30T01:55:50.345Z,2.60
2023-03-30T01:58:24.180Z,2.10
2023-03-30T02:00:53.764Z,1.90
2023-03-30T02:06:00.132Z,1.40
2023-03-30T02:08:33.205Z,2.17
2023-03-30T02:11:04.765Z,1.40
2023-03-30T02:13:35.065Z,1.70
2023-03-30T02:16:08.196Z,1.40
2023-03-30T02:18:38.172Z,1.80
2023-03-30T02:21:06.992Z,1.80
2023-03-30T02:23:41.186Z,1.70
2023-03-30T02:26:11.322Z,1.67
2023-03-30T02:28:40.102Z,1.73
2023-03-30T02:31:13.412Z,2.03
2023-03-30T02:33:53.138Z,1.70
2023-03-30T02:36:35.465Z,1.97
2023-03-30T02:39:14.618Z,1.67
2023-03-30T02:42:13.598Z,1.17
2023-03-30T02:44:47.549Z,1.70
2023-03-30T02:47:24.288Z,1.40
2023-03-30T02:49:58.676Z,1.40
2023-03-30T02:52:40.696Z,1.50
2023-03-30T02:55:19.765Z,1.70
2023-03-30T02:58:35.615Z,1.40
2023-03-30T03:01:15.387Z,1.50
2023-03-30T03:03:58.158Z,1.60
2023-03-30T03:06:28.763Z,1.20
2023-03-30T03:08:58.232Z,1.37
2023-03-30T03:11:29.935Z,1.17
2023-03-30T03:14:00.136Z,1.73
2023-03-30T03:16:30.923Z,1.30
2023-03-30T03:19:16.009Z,1.23
2023-03-30T03:21:45.708Z,1.40
2023-03-30T03:24:17.256Z,1.37
2023-03-30T03:27:04.651Z,1.50
2023-03-30T03:29:43.868Z,1.60
2023-03-30T03:32:12.555Z,0.77
2023-03-30T03:34:46.156Z,1.73
2023-03-30T03:37:15.657Z,1.27
2023-03-30T03:39:46.391Z,1.20
2023-03-30T03:42:16.491Z,1.20
2023-03-30T03:44:56.037Z,1.70
2023-03-30T03:47:24.665Z,0.83
2023-03-30T03:49:53.295Z,1.10
2023-03-30T03:52:21.862Z,1.20
2023-03-30T03:54:50.444Z,1.37
2023-03-30T03:57:19.344Z,0.80
2023-03-30T03:59:49.015Z,1.00
2023-03-30T04:02:19.802Z,0.97
2023-03-30T04:04:50.313Z,0.97
2023-03-30T04:07:18.873Z,1.30
2023-03-30T04:09:47.737Z,1.77
2023-03-30T04:12:42.497Z,0.90
2023-03-30T04:15:43.434Z,1.57
2023-03-30T04:18:31.387Z,1.10
2023-03-30T04:21:13.000Z,1.70
2023-03-30T04:24:04.866Z,1.17
2023-03-30T04:26:52.032Z,1.00
2023-03-30T04:29:40.777Z,0.97
2023-03-30T04:32:44.901Z,1.10
2023-03-30T04:35:33.343Z,1.33
2023-03-30T04:38:12.298Z,1.07
2023-03-30T04:40:55.123Z,1.20
2023-03-30T04:43:42.165Z,1.07
2023-03-30T04:46:29.304Z,1.00
2023-03-30T04:49:15.680Z,0.90
2023-03-30T04:52:11.864Z,1.07
2023-03-30T04:54:57.987Z,1.43
2023-03-30T04:57:44.955Z,1.03
2023-03-30T05:00:33.858Z,1.47
2023-03-30T05:03:23.252Z,1.43
2023-03-30T05:06:15.176Z,1.63
2023-03-30T05:08:45.026Z,1.80
2023-03-30T05:11:32.231Z,1.43
2023-03-30T05:14:21.021Z,1.63
2023-03-30T05:17:11.659Z,1.77
2023-03-30T05:19:55.164Z,1.63
2023-03-30T05:22:32.373Z,1.50
2023-03-30T05:25:15.751Z,1.73
2023-03-30T05:28:03.431Z,1.70
2023-03-30T05:34:00.234Z,1.80
2023-03-30T05:36:48.995Z,1.70
2023-03-30T05:39:29.806Z,1.87
2023-03-30T05:42:17.997Z,2.40
2023-03-30T05:44:56.372Z,1.80
2023-03-30T05:47:39.844Z,2.87
2023-03-30T05:50:15.654Z,2.43
2023-03-30T05:53:04.690Z,2.10
2023-03-30T05:55:39.201Z,2.67
2023-03-30T05:58:09.741Z,2.27
2023-03-30T06:01:14.386Z,2.70
2023-03-30T06:03:45.751Z,2.10
2023-03-30T06:06:14.790Z,2.00
2023-03-30T06:08:46.767Z,2.00
2023-03-30T06:11:19.492Z,2.17
2023-03-30T06:14:01.008Z,2.93
2023-03-30T06:16:31.923Z,2.40
2023-03-30T06:19:01.840Z,2.50
2023-03-30T06:21:30.976Z,2.30
2023-03-30T06:24:20.743Z,2.63
2023-03-30T06:26:50.804Z,2.23
2023-03-30T06:29:20.828Z,1.97
2023-03-30T06:31:51.251Z,2.73
2023-03-30T06:34:46.452Z,2.27
2023-03-30T06:37:16.131Z,2.57
2023-03-30T06:39:46.185Z,2.63
2023-03-30T06:42:14.864Z,2.00
2023-03-30T06:45:04.422Z,2.40
2023-03-30T06:47:33.744Z,2.70
2023-03-30T06:50:02.342Z,2.50
2023-03-30T06:52:48.493Z,2.63
2023-03-30T06:55:17.391Z,2.17
2023-03-30T06:57:48.174Z,2.03
2023-03-30T07:00:19.132Z,1.67
2023-03-30T07:03:06.791Z,1.50
2023-03-30T07:05:58.666Z,1.80
2023-03-30T07:08:40.228Z,2.00
2023-03-30T07:11:11.437Z,1.70
2023-03-30T07:13:42.067Z,2.20
2023-03-30T07:16:12.220Z,1.87
2023-03-30T07:18:40.904Z,2.00
2023-03-30T07:21:09.531Z,2.40
2023-03-30T07:23:41.948Z,2.33
2023-03-30T07:26:13.292Z,1.80
2023-03-30T07:28:53.408Z,2.30
2023-03-30T07:31:25.477Z,2.27
2023-03-30T07:33:54.209Z,2.33
2023-03-30T07:36:26.482Z,2.43
2023-03-30T07:38:55.310Z,2.77
2023-03-30T07:41:24.190Z,1.77
2023-03-30T07:43:57.436Z,3.00
2023-03-30T07:46:27.717Z,2.37
2023-03-30T07:48:57.594Z,2.47
2023-03-30T07:51:28.394Z,2.63
2023-03-30T07:54:13.229Z,2.27
2023-03-30T07:56:54.832Z,2.90
2023-03-30T07:59:25.175Z,2.30
2023-03-30T08:01:59.606Z,2.50
2023-03-30T08:04:52.918Z,3.17
2023-03-30T08:07:40.106Z,2.27
2023-03-30T08:10:14.905Z,1.93
2023-03-30T08:12:43.524Z,2.97
2023-03-30T08:15:12.678Z,1.93
2023-03-30T08:17:42.659Z,2.97
2023-03-30T08:20:11.769Z,1.70
2023-03-30T08:22:40.431Z,3.30
2023-03-30T08:25:09.601Z,2.20
2023-03-30T08:27:38.285Z,2.90
2023-03-30T08:30:08.074Z,4.20
2023-03-30T08:32:36.662Z,3.00
2023-03-30T08:35:07.914Z,3.07
2023-03-30T08:37:36.486Z,2.87
2023-03-30T08:40:08.387Z,3.27
2023-03-30T08:43:18.604Z,2.60
2023-03-30T08:45:47.563Z,3.10
2023-03-30T08:48:19.778Z,2.43
2023-03-30T08:50:56.134Z,3.10
2023-03-30T08:53:24.700Z,2.27
2023-03-30T08:55:58.236Z,3.30
2023-03-30T08:58:35.477Z,2.43
2023-03-30T09:01:14.269Z,2.53
2023-03-30T09:03:50.596Z,2.83
2023-03-30T09:06:27.379Z,1.90
2023-03-30T09:08:55.935Z,1.90
2023-03-30T09:11:32.807Z,2.27
2023-03-30T09:14:04.816Z,3.40
2023-03-30T09:16:39.528Z,2.10
2023-03-30T09:19:13.124Z,2.73
2023-03-30T09:21:44.152Z,3.00
2023-03-30T09:24:17.872Z,3.43
2023-03-30T09:26:52.568Z,2.87
2023-03-30T09:29:27.242Z,2.40
2023-03-30T09:32:05.817Z,2.60
2023-03-30T09:34:41.773Z,2.97
2023-03-30T09:37:16.217Z,2.93
2023-03-30T09:39:45.928Z,2.53
2023-03-30T09:42:32.739Z,3.67
2023-03-30T09:45:07.213Z,2.10
2023-03-30T09:47:44.368Z,3.40
2023-03-30T09:50:18.497Z,2.53
2023-03-30T09:52:57.822Z,2.50
2023-03-30T09:55:30.003Z,2.83
2023-03-30T09:58:13.281Z,3.37
2023-03-30T10:00:42.164Z,3.17
2023-03-30T10:03:22.059Z,3.67
2023-03-30T10:06:03.812Z,3.43
2023-03-30T10:08:32.780Z,2.63
2023-03-30T10:11:06.005Z,2.93
2023-03-30T10:13:37.590Z,3.47
2023-03-30T10:16:09.199Z,2.47
2023-03-30T10:18:45.481Z,2.87
2023-03-30T10:21:22.754Z,2.90
2023-03-30T10:24:03.567Z,3.57
2023-03-30T10:26:34.714Z,2.73
2023-03-30T10:29:05.476Z,2.33
2023-03-30T10:31:37.281Z,3.27
2023-03-30T10:34:15.317Z,2.60
2023-03-30T10:36:43.931Z,3.07
2023-03-30T10:39:17.909Z,3.03
2023-03-30T10:41:48.260Z,2.63
2023-03-30T10:44:23.244Z,4.10
2023-03-30T10:46:54.938Z,3.43
2023-03-30T10:49:39.509Z,3.03
2023-03-30T10:52:16.974Z,3.00
2023-03-30T10:54:52.798Z,3.87
2023-03-30T10:57:25.353Z,3.13
2023-03-30T11:00:20.562Z,2.80
2023-03-30T11:03:01.507Z,2.77
2023-03-30T11:05:35.649Z,3.43
2023-03-30T11:08:06.166Z,2.67
2023-03-30T11:10:38.385Z,2.97
2023-03-30T11:13:11.591Z,2.33
2023-03-30T11:15:45.141Z,2.40
2023-03-30T11:18:19.250Z,2.10
2023-03-30T11:20:54.867Z,2.57
2023-03-30T11:23:31.131Z,2.47
2023-03-30T11:26:04.491Z,2.73
2023-03-30T11:28:48.601Z,3.03
2023-03-30T11:31:34.434Z,2.47
2023-03-30T11:34:10.847Z,2.47
2023-03-30T11:36:49.704Z,2.33
2023-03-30T11:39:32.205Z,2.73
2023-03-30T11:42:08.143Z,2.53
2023-03-30T11:44:37.547Z,2.80
2023-03-30T11:47:20.229Z,2.83
2023-03-30T11:50:04.326Z,2.00
2023-03-30T11:52:38.210Z,2.10
2023-03-30T11:55:27.389Z,2.23
2023-03-30T11:58:06.818Z,2.97
2023-03-30T12:00:48.627Z,2.17
2023-03-30T12:03:27.826Z,2.00
2023-03-30T12:06:06.636Z,2.83
2023-03-30T12:08:52.161Z,2.40
2023-03-30T12:11:28.916Z,2.63
2023-03-30T12:13:58.368Z,3.00
2023-03-30T12:16:32.861Z,2.57
2023-03-30T12:19:11.056Z,2.50
2023-03-30T12:21:48.906Z,2.77
2023-03-30T12:24:23.497Z,2.93
2023-03-30T12:27:04.248Z,2.67
2023-03-30T12:30:02.628Z,2.43
2023-03-30T12:32:32.328Z,2.90
2023-03-30T12:35:00.983Z,2.83
2023-03-30T12:37:34.756Z,3.10
2023-03-30T12:40:09.619Z,3.60
2023-03-30T12:42:46.939Z,3.00
2023-03-30T12:45:25.517Z,3.53
2023-03-30T12:48:30.526Z,3.07
2023-03-30T12:51:08.600Z,2.70
2023-03-30T12:54:01.237Z,3.40
2023-03-30T12:56:37.992Z,3.83
2023-03-30T12:59:29.955Z,2.67
2023-03-30T13:02:08.806Z,2.87
2023-03-30T13:04:39.967Z,3.37
2023-03-30T13:07:15.195Z,2.97
2023-03-30T13:09:56.619Z,2.80
2023-03-30T13:12:39.830Z,3.13
2023-03-30T13:15:33.786Z,2.77
2023-03-30T13:18:05.239Z,2.83
2023-03-30T13:20:35.838Z,4.20
2023-03-30T13:23:28.179Z,3.17
2023-03-30T13:26:33.985Z,3.40
2023-03-30T13:29:11.333Z,3.30
2023-03-30T13:32:04.319Z,3.70
2023-03-30T13:35:08.507Z,3.77
2023-03-30T13:38:11.273Z,3.03
2023-03-30T13:40:57.693Z,3.50
2023-03-30T13:43:41.063Z,4.37
2023-03-30T13:46:19.109Z,3.23
2023-03-30T13:49:03.069Z,2.77
2023-03-30T13:51:32.823Z,3.23
2023-03-30T13:54:05.077Z,2.87
2023-03-30T13:56:36.917Z,3.03
2023-03-30T13:59:08.363Z,2.07
2023-03-30T14:01:40.454Z,2.43
2023-03-30T14:04:13.746Z,2.77
2023-03-30T14:06:45.899Z,3.53
2023-03-30T14:09:19.527Z,2.47
2023-03-30T14:11:51.509Z,2.27
2023-03-30T14:14:23.848Z,2.70
2023-03-30T14:16:53.860Z,2.43
2023-03-30T14:19:26.088Z,2.63
2023-03-30T14:21:58.242Z,2.03
2023-03-30T14:24:33.124Z,2.37
2023-03-30T14:27:04.076Z,1.97
2023-03-30T14:29:33.291Z,2.07
2023-03-30T14:32:09.261Z,2.60
2023-03-30T14:34:38.541Z,2.13
2023-03-30T14:37:09.205Z,2.10
2023-03-30T14:39:41.554Z,2.30
2023-03-30T14:42:17.382Z,2.57
2023-03-30T14:44:48.276Z,2.03
2023-03-30T14:47:22.211Z,2.20
2023-03-30T14:49:54.514Z,2.20
2023-03-30T14:52:26.658Z,2.03
2023-03-30T14:55:05.339Z,2.70
2023-03-30T14:57:38.991Z,2.77
2023-03-30T15:00:21.038Z,2.80
2023-03-30T15:02:54.194Z,2.00
2023-03-30T15:05:25.686Z,2.13
2023-03-30T15:07:54.427Z,2.03
2023-03-30T15:10:26.644Z,2.10
2023-03-30T15:12:58.389Z,2.23
2023-03-30T15:15:30.675Z,1.83
2023-03-30T15:18:01.602Z,2.60
2023-03-30T15:20:32.825Z,2.13
2023-03-30T15:23:02.047Z,2.07
2023-03-30T15:25:33.369Z,2.47
2023-03-30T15:28:05.048Z,1.93
2023-03-30T15:30:37.082Z,2.33
2023-03-30T15:33:08.542Z,1.90
2023-03-30T15:35:38.678Z,1.87
2023-03-30T15:38:17.151Z,2.23
2023-03-30T15:40:47.005Z,2.47
2023-03-30T15:43:21.109Z,3.20
2023-03-30T15:45:52.927Z,2.33
2023-03-30T15:48:25.780Z,2.77
2023-03-30T15:51:03.597Z,1.87
2023-03-30T15:53:41.144Z,2.07
2023-03-30T15:56:14.348Z,2.13
2023-03-30T15:58:44.070Z,2.03
2023-03-30T16:01:15.774Z,3.47
2023-03-30T16:03:54.795Z,2.17
2023-03-30T16:06:23.924Z,2.00
2023-03-30T16:08:52.510Z,2.20
2023-03-30T16:11:22.744Z,1.97
2023-03-30T16:13:54.012Z,1.30
2023-03-30T16:16:22.782Z,1.70
2023-03-30T16:18:52.785Z,2.00
2023-03-30T16:21:24.438Z,2.47
2023-03-30T16:23:53.103Z,1.87
2023-03-30T16:26:21.984Z,1.70
2023-03-30T16:28:52.629Z,2.00
2023-03-30T16:31:23.759Z,1.83
2023-03-30T16:33:54.125Z,1.67
2023-03-30T16:36:24.322Z,2.03
2023-03-30T16:38:52.943Z,2.23
2023-03-30T16:41:23.011Z,2.60
2023-03-30T16:43:51.678Z,1.93
2023-03-30T16:46:22.804Z,2.20
2023-03-30T16:48:52.794Z,2.27
2023-03-30T16:51:21.468Z,2.27
2023-03-30T16:53:50.033Z,1.83
2023-03-30T16:56:20.348Z,1.87
2023-03-30T16:58:49.349Z,1.87
2023-03-30T17:01:18.858Z,1.63
2023-03-30T17:03:47.864Z,2.60
2023-03-30T17:06:17.856Z,2.17
2023-03-30T17:08:46.460Z,2.10
2023-03-30T17:11:15.581Z,2.33
2023-03-30T17:13:46.471Z,2.63
2023-03-30T17:16:16.124Z,2.30
2023-03-30T17:18:44.878Z,2.23
2023-03-30T17:21:16.421Z,1.90
2023-03-30T17:23:47.965Z,2.33
2023-03-30T17:26:17.617Z,2.50
2023-03-30T17:28:46.509Z,2.90
2023-03-30T17:31:17.466Z,2.50
2023-03-30T17:33:46.329Z,2.40
2023-03-30T17:36:19.239Z,2.50
2023-03-30T17:38:50.515Z,2.03
2023-03-30T17:41:20.413Z,2.20
2023-03-30T17:43:49.621Z,2.07
2023-03-30T17:46:20.794Z,2.20
2023-03-30T17:48:51.071Z,2.27
2023-03-30T17:51:20.602Z,2.53
2023-03-30T17:53:50.604Z,3.23
2023-03-30T17:56:19.221Z,2.80
2023-03-30T17:58:49.479Z,2.88
2023-03-30T18:01:18.169Z,2.10
2023-03-30T18:03:46.955Z,2.60
2023-03-30T18:06:15.696Z,2.80
2023-03-30T18:08:44.322Z,2.57
2023-03-30T18:11:14.250Z,2.70
2023-03-30T18:13:42.839Z,2.40
2023-03-30T18:16:13.850Z,2.73
2023-03-30T18:18:42.457Z,1.87
2023-03-30T18:21:11.963Z,2.00
2023-03-30T18:23:40.486Z,2.80
2023-03-30T18:26:12.786Z,2.30
2023-03-30T18:28:44.115Z,3.63
2023-03-30T18:31:13.292Z,2.93
2023-03-30T18:33:41.972Z,3.33
2023-03-30T18:36:12.788Z,2.33
2023-03-30T18:38:42.112Z,3.47
2023-03-30T18:41:12.502Z,2.70
2023-03-30T18:43:42.502Z,3.87
2023-03-30T18:46:12.533Z,5.10
2023-03-30T18:48:41.275Z,3.87
2023-03-30T18:51:11.948Z,2.70
2023-03-30T18:53:40.690Z,3.50
2023-03-30T18:56:13.556Z,3.73
2023-03-30T18:58:43.880Z,4.90
2023-03-30T19:01:15.702Z,5.53
2023-03-30T19:03:44.843Z,2.50
2023-03-30T19:06:15.982Z,3.67
2023-03-30T19:08:44.534Z,3.50
2023-03-30T19:11:17.499Z,3.00
2023-03-30T19:13:48.186Z,2.33
2023-03-30T19:16:18.587Z,2.93
2023-03-30T19:18:49.383Z,2.07
2023-03-30T19:21:19.422Z,3.43
2023-03-30T19:23:48.112Z,2.67
2023-03-30T19:26:16.853Z,3.60
2023-03-30T19:28:46.852Z,3.03
2023-03-30T19:31:16.417Z,2.70
2023-03-30T19:33:45.217Z,2.97
2023-03-30T19:36:13.770Z,2.93
2023-03-30T19:38:43.958Z,2.97
2023-03-30T19:41:12.761Z,2.87
2023-03-30T19:43:41.324Z,3.23
2023-03-30T19:46:11.319Z,3.83
2023-03-30T19:48:39.921Z,2.43
2023-03-30T19:51:08.654Z,2.90
2023-03-30T19:53:37.557Z,2.30
2023-03-30T19:56:10.286Z,3.30
2023-03-30T19:58:38.938Z,2.70
2023-03-30T20:01:08.663Z,3.40
2023-03-30T20:03:38.816Z,3.60
2023-03-30T20:06:11.013Z,2.50
2023-03-30T20:08:40.209Z,3.70
2023-03-30T20:11:09.610Z,3.57
2023-03-30T20:13:38.648Z,2.87
2023-03-30T20:16:07.546Z,3.00
2023-03-30T20:18:36.253Z,2.83
2023-03-30T20:21:06.698Z,2.60
2023-03-30T20:23:35.532Z,2.50
2023-03-30T20:26:04.769Z,3.33
2023-03-30T20:28:33.662Z,3.10
2023-03-30T20:31:02.822Z,3.17
2023-03-30T20:33:33.768Z,2.27
2023-03-30T20:36:02.407Z,3.37
2023-03-30T20:38:32.486Z,3.27
2023-03-30T20:41:04.059Z,2.80
2023-03-30T20:43:40.604Z,3.37
2023-03-30T20:46:15.439Z,2.17
2023-03-30T20:48:44.996Z,2.23
2023-03-30T20:51:15.512Z,2.27
2023-03-30T20:53:45.513Z,2.60
2023-03-30T20:56:14.300Z,2.50
2023-03-30T20:58:42.894Z,2.57
2023-03-30T21:01:14.769Z,2.50
2023-03-30T21:03:45.230Z,2.30
2023-03-30T21:06:18.115Z,2.53
2023-03-30T21:08:48.054Z,2.53
2023-03-30T21:11:16.601Z,2.60
2023-03-30T21:13:45.402Z,2.03
2023-03-30T21:16:14.324Z,2.53
2023-03-30T21:18:43.077Z,1.80
2023-03-30T21:21:11.723Z,1.87
2023-03-30T21:23:41.395Z,2.47
2023-03-30T21:26:11.801Z,2.53
2023-03-30T21:28:41.369Z,2.07
2023-03-30T21:31:14.140Z,2.20
2023-03-30T21:33:42.827Z,2.40
2023-03-30T21:36:12.047Z,3.20
2023-03-30T21:38:40.902Z,2.67
2023-03-30T21:41:12.752Z,2.53
2023-03-30T21:43:44.070Z,2.20
2023-03-30T21:46:14.337Z,2.77
2023-03-30T21:48:45.399Z,3.57
2023-03-30T21:51:15.884Z,1.77
2023-03-30T21:53:48.101Z,3.43
2023-03-30T21:56:19.572Z,2.23
2023-03-30T21:58:48.224Z,2.90
2023-03-30T22:01:17.301Z,2.63
2023-03-30T22:03:46.729Z,2.30
2023-03-30T22:06:17.221Z,3.20
2023-03-30T22:08:46.364Z,2.70
2023-03-30T22:11:18.634Z,2.17
2023-03-30T22:13:48.861Z,2.40
2023-03-30T22:16:19.633Z,3.20
2023-03-30T22:18:48.181Z,2.07
2023-03-30T22:21:24.067Z,2.63
2023-03-30T22:23:54.553Z,1.90
2023-03-30T22:26:24.679Z,2.33
2023-03-30T22:28:53.233Z,3.23
2023-03-30T22:31:22.075Z,2.10
2023-03-30T22:33:50.766Z,2.03
2023-03-30T22:36:20.976Z,2.37
2023-03-30T22:38:50.790Z,3.03
2023-03-30T22:41:24.766Z,2.57
2023-03-30T22:43:56.246Z,2.07
2023-03-30T22:46:26.906Z,2.03
2023-03-30T22:48:56.419Z,2.90
2023-03-30T22:51:26.220Z,2.47
2023-03-30T22:53:57.846Z,2.40
2023-03-30T22:56:27.319Z,1.90
2023-03-30T22:58:57.997Z,2.13
2023-03-30T23:01:29.226Z,2.47
2023-03-30T23:03:59.583Z,2.80
2023-03-30T23:06:28.561Z,2.60
2023-03-30T23:08:57.209Z,2.63
2023-03-30T23:11:26.357Z,2.53
2023-03-30T23:13:55.326Z,2.27
2023-03-30T23:16:25.350Z,2.70
2023-03-30T23:18:53.901Z,2.77
2023-03-30T23:21:22.891Z,2.63
2023-03-30T23:23:51.884Z,2.07
2023-03-30T23:26:21.401Z,2.40
2023-03-30T23:28:49.966Z,2.87
2023-03-30T23:31:18.944Z,2.93
2023-03-30T23:33:49.273Z,3.10
2023-03-30T23:36:19.088Z,2.33
2023-03-30T23:38:48.671Z,2.43
2023-03-30T23:41:20.063Z,2.37
2023-03-30T23:43:48.981Z,2.50
2023-03-30T23:46:17.780Z,3.10
2023-03-30T23:48:46.608Z,2.77
2023-03-30T23:51:16.506Z,2.17
2023-03-30T23:53:45.060Z,3.10
2023-03-30T23:56:17.157Z,2.50
2023-03-30T23:58:46.199Z,2.93
